Time;durP1;ratioP1;P1;durP2;ratioP2;P2;SDS_P1;SDS_P2;PMS_P1;PMS_P2;Temp;Humidity;BMP_temperature;BMP_pressure;BME280_temperature;BME280_humidity;BME280_pressure;Samples;Min_cycle;Max_cycle;Signal;HPM_P1;HPM_P2
2023/10/05 00:03:10;;;;;;;20.20;9.60;;;;;;;11.79;100.00;101107.16;223618;1265;140212;-86
2023/10/05 00:39:20;;;;;;;23.70;10.70;;;;;;;11.55;100.00;101101.67;224187;1264;139647;-84
2023/10/05 00:57:24;;;;;;;15.80;8.90;;;;;;;11.40;100.00;101082.66;224284;1264;138834;-85
2023/10/05 01:15:31;;;;;;;18.00;8.30;;;;;;;11.25;100.00;101081.74;223986;1263;250432;-86
2023/10/05 01:21:28;;;;;;;24.10;8.80;;;;;;;11.21;100.00;101079.23;223663;1263;140001;-85
2023/10/05 01:27:29;;;;;;;20.40;9.60;;;;;;;11.17;100.00;101065.07;224251;1264;138769;-84
2023/10/05 01:33:31;;;;;;;21.10;9.80;;;;;;;11.13;100.00;101062.55;223626;1263;140442;-86
2023/10/05 01:51:52;;;;;;;18.70;8.90;;;;;;;11.00;100.00;101040.96;222573;1271;140582;-85
2023/10/05 02:03:57;;;;;;;17.00;7.90;;;;;;;10.89;100.00;101026.99;223714;1263;139976;-84
2023/10/05 02:09:56;;;;;;;20.10;9.50;;;;;;;10.84;100.00;101026.50;224269;1263;139473;-85
2023/10/05 02:22:02;;;;;;;18.40;8.50;;;;;;;10.77;100.00;101019.27;223728;1263;140477;-84
2023/10/05 02:28:00;;;;;;;18.40;8.30;;;;;;;10.73;100.00;101015.10;224209;1263;139267;-85
2023/10/05 02:34:01;;;;;;;20.10;8.80;;;;;;;10.68;100.00;101001.80;223680;1263;139897;-85
2023/10/05 02:46:09;;;;;;;18.20;8.70;;;;;;;10.59;100.00;100980.79;224259;1263;139396;-85
2023/10/05 02:52:07;;;;;;;15.50;8.70;;;;;;;10.56;100.00;100971.27;223732;1263;140186;-85
2023/10/05 02:58:08;;;;;;;17.50;9.00;;;;;;;10.53;100.00;100970.52;224258;1263;139630;-86
2023/10/05 03:10:16;;;;;;;20.00;8.90;;;;;;;10.48;100.00;100954.98;223352;1263;140198;-85
2023/10/05 03:22:34;;;;;;;21.50;9.90;;;;;;;10.43;100.00;100947.98;223761;1263;141109;-86
2023/10/05 03:34:18;;;;;;;18.80;8.60;;;;;;;10.38;100.00;100945.44;223724;1263;140350;-85
2023/10/05 03:52:32;;;;;;;19.60;7.80;;;;;;;10.32;100.00;100933.61;223729;1263;140179;-85
2023/10/05 03:58:33;;;;;;;18.40;8.10;;;;;;;10.30;100.00;100933.58;224323;1263;138717;-86
2023/10/05 04:04:58;;;;;;;20.10;8.30;;;;;;;10.29;100.00;100930.31;223753;1263;139990;-86
2023/10/05 04:22:43;;;;;;;;;;;;;;;;;;;;;
2023/10/05 04:40:54;;;;;;;20.50;8.20;;;;;;;10.10;100.00;100908.34;223775;1263;140303;-85
2023/10/05 04:46:55;;;;;;;17.50;7.30;;;;;;;10.09;100.00;100901.71;224308;1263;139551;-86
2023/10/05 04:53:00;;;;;;;16.10;7.50;;;;;;;10.10;100.00;100893.62;223760;1264;140083;-85
2023/10/05 05:17:13;;;;;;;14.80;7.60;;;;;;;10.12;100.00;100898.15;224290;1263;96052;-86
2023/10/05 05:23:13;;;;;;;;;;;;;;;;;;;;;
2023/10/05 05:29:18;;;;;;;18.50;7.50;;;;;;;10.25;100.00;100886.85;224187;1263;139927;-85
2023/10/05 05:35:18;;;;;;;18.60;7.30;;;;;;;10.32;100.00;100868.84;224270;1263;139607;-86
2023/10/05 05:41:43;;;;;;;62.90;21.90;;;;;;;10.41;100.00;100866.66;223646;1263;142552;-86
2023/10/05 05:47:09;;;;;;;;;;;;;;;;;;;;;
2023/10/05 05:53:33;;;;;;;14.40;6.80;;;;;;;10.61;100.00;100863.00;223526;1265;140252;-85
2023/10/05 05:59:15;;;;;;;17.60;6.70;;;;;;;10.74;100.00;100859.52;224196;1263;138886;-85
2023/10/05 06:11:17;;;;;;;17.60;6.10;;;;;;;10.98;100.00;100849.23;223566;1263;140929;-88
2023/10/05 06:17:11;;;;;;;17.80;6.50;;;;;;;11.12;100.00;100845.85;224284;1263;139516;-86
2023/10/05 06:23:12;;;;;;;17.90;6.20;;;;;;;11.24;100.00;100839.65;223595;1263;140603;-86
2023/10/05 06:29:08;;;;;;;14.10;5.90;;;;;;;11.37;100.00;100829.77;224308;1263;139358;-88
2023/10/05 06:35:08;;;;;;;17.40;7.50;;;;;;;11.48;100.00;100829.53;223816;1263;139489;-87
2023/10/05 06:47:18;;;;;;;41.70;23.40;;;;;;;11.69;100.00;100830.80;224310;1263;138647;-86
2023/10/05 06:53:00;;;;;;;61.70;51.40;;;;;;;11.76;100.00;100825.52;223572;1263;140726;-88
2023/10/05 06:58:49;;;;;;;17.20;6.10;;;;;;;11.84;100.00;100825.78;224287;1263;139032;-90
2023/10/05 07:04:47;;;;;;;14.90;5.80;;;;;;;11.92;100.00;100829.34;223657;1263;140063;-89
2023/10/05 07:10:49;;;;;;;13.80;6.00;;;;;;;11.97;100.00;100828.30;223581;1263;140401;-89
2023/10/05 07:16:48;;;;;;;;;;;;;;;;;;;;;
2023/10/05 07:22:50;;;;;;;19.60;6.20;;;;;;;12.09;100.00;100817.79;223350;1263;141202;-87
2023/10/05 07:28:46;;;;;;;;;;;;;;;;;;;;;
2023/10/05 07:34:48;;;;;;;12.20;5.60;;;;;;;12.17;100.00;100823.64;223596;1263;140321;-89
2023/10/05 07:40:34;;;;;;;18.00;6.00;;;;;;;12.25;100.00;100824.83;223568;1263;140198;-89
2023/10/05 07:46:16;;;;;;;21.10;7.30;;;;;;;12.33;100.00;100826.96;224168;1263;138987;-87
2023/10/05 07:52:07;;;;;;;;;;;;;;;;;;;;;
2023/10/05 07:58:15;;;;;;;13.40;5.70;;;;;;;12.49;100.00;100829.25;224307;1263;138861;-87
2023/10/05 08:03:59;;;;;;;17.90;5.80;;;;;;;12.56;100.00;100827.98;223615;1263;140117;-90
2023/10/05 08:10:23;;;;;;;16.30;6.30;;;;;;;12.64;100.00;100833.89;224121;1263;139600;-89
2023/10/05 08:15:44;;;;;;;;;;;;;;;;;;;;;
2023/10/05 08:21:31;;;;;;;13.40;5.70;;;;;;;12.86;100.00;100835.66;223633;1263;140745;-88
2023/10/05 08:27:34;;;;;;;;;;;;;;;;;;;;;
2023/10/05 08:34:01;;;;;;;17.60;5.60;;;;;;;13.10;100.00;100829.89;219562;1263;5377203;-89
2023/10/05 08:39:37;;;;;;;13.50;6.20;;;;;;;13.26;100.00;100827.63;224087;1265;139614;-88
2023/10/05 08:45:39;;;;;;;13.10;5.40;;;;;;;13.39;100.00;100821.38;224172;1263;139852;-89
2023/10/05 08:52:09;;;;;;;15.30;5.40;;;;;;;13.58;100.00;100821.81;223645;1265;140252;-88
2023/10/05 08:57:40;;;;;;;13.80;5.50;;;;;;;13.79;100.00;100821.11;223974;1267;139002;-88
2023/10/05 09:04:23;;;;;;;17.80;6.30;;;;;;;14.03;100.00;100822.48;223612;1265;140124;-89
2023/10/05 09:15:57;;;;;;;18.40;6.50;;;;;;;14.35;100.00;100812.08;224142;1265;138778;-90
2023/10/05 09:22:23;;;;;;;16.80;6.50;;;;;;;14.55;100.00;100817.41;223665;1267;140208;-90
2023/10/05 09:28:28;;;;;;;14.00;5.50;;;;;;;14.77;100.00;100819.55;224120;1264;138739;-89
2023/10/05 09:33:47;;;;;;;159.50;52.20;;;;;;;15.06;99.89;100815.83;223686;1265;139973;-87
2023/10/05 09:39:49;;;;;;;18.80;8.70;;;;;;;15.22;98.88;100810.65;224244;1266;138936;-86
2023/10/05 09:45:39;;;;;;;13.40;5.70;;;;;;;15.33;99.00;100814.38;224100;1263;243214;-90
2023/10/05 09:51:43;;;;;;;15.10;4.90;;;;;;;15.40;98.03;100816.04;223792;1266;139783;-90
2023/10/05 10:03:33;;;;;;;15.20;5.50;;;;;;;15.57;97.21;100809.34;223651;1264;139943;-91
2023/10/05 10:09:34;;;;;;;14.20;4.80;;;;;;;15.77;95.97;100811.64;224152;1263;139514;-92
2023/10/05 10:15:35;;;;;;;13.20;5.40;;;;;;;16.05;95.27;100822.14;224271;1263;138808;-88
2023/10/05 10:21:41;;;;;;;13.70;5.80;;;;;;;16.37;93.59;100815.95;223694;1263;141163;-89
2023/10/05 10:27:43;;;;;;;15.10;4.50;;;;;;;16.58;91.85;100829.40;223999;1263;138676;-88
2023/10/05 10:33:57;;;;;;;12.10;4.60;;;;;;;16.76;91.41;100833.70;223726;1263;141414;-89
2023/10/05 10:39:53;;;;;;;;;;;;;;;;;;;;;
2023/10/05 10:58:13;;;;;;;27.80;14.10;;;;;;;16.83;89.36;100818.89;224104;1263;138731;-88
2023/10/05 11:04:23;;;;;;;13.00;5.00;;;;;;;16.83;89.37;100823.02;223598;1263;140307;-90
2023/10/05 11:10:19;;;;;;;18.10;4.70;;;;;;;16.92;89.86;100827.54;223607;1263;162251;-88
2023/10/05 11:16:11;;;;;;;;;;;;;;;;;;;;;
2023/10/05 11:22:13;;;;;;;12.80;4.40;;;;;;;16.74;88.15;100832.36;223626;1263;140614;-88
2023/10/05 11:27:54;;;;;;;;;;;;;;;;;;;;;
2023/10/05 11:34:19;;;;;;;13.00;4.60;;;;;;;16.50;88.64;100826.27;223660;1263;139701;-88
2023/10/05 11:39:49;;;;;;;11.00;4.60;;;;;;;16.38;89.16;100828.64;224038;1263;139311;-89
2023/10/05 11:45:48;;;;;;;12.60;5.00;;;;;;;16.26;89.51;100827.98;224032;1263;241737;-89
2023/10/05 11:52:11;;;;;;;14.50;4.90;;;;;;;16.12;91.08;100836.63;223565;1267;140135;-88
2023/10/05 11:57:32;;;;;;;12.10;4.80;;;;;;;15.99;93.53;100837.16;224105;1267;139382;-89
2023/10/05 12:03:16;;;;;;;13.70;5.50;;;;;;;15.89;93.70;100831.81;223575;1267;140828;-91
2023/10/05 12:09:43;;;;;;;17.30;5.50;;;;;;;15.82;94.60;100837.39;224218;1263;138903;-89
2023/10/05 12:15:17;;;;;;;15.70;5.20;;;;;;;15.74;94.64;100844.31;223908;1266;140286;-90
2023/10/05 12:21:10;;;;;;;15.30;5.80;;;;;;;15.72;95.09;100848.70;223571;1263;140321;-90
2023/10/05 12:27:36;;;;;;;16.70;8.00;;;;;;;15.72;96.56;100862.73;224130;1266;138843;-89
2023/10/05 12:33:13;;;;;;;24.10;19.90;;;;;;;15.57;97.86;100872.75;223399;1267;139822;-87
2023/10/05 12:39:09;;;;;;;;;;;;;;;;;;;;;
2023/10/05 12:45:11;;;;;;;32.20;28.50;;;;;;;15.31;100.00;100870.39;223829;1263;244452;-86
2023/10/05 12:51:11;;;;;;;59.20;53.10;;;;;;;15.22;100.00;100866.83;223613;1265;140818;-86
2023/10/05 12:57:13;;;;;;;76.70;70.80;;;;;;;15.16;100.00;100867.70;224120;1263;139814;-87
2023/10/05 13:03:14;;;;;;;57.80;53.20;;;;;;;15.15;100.00;100861.29;223691;1263;139876;-86
2023/10/05 13:09:18;;;;;;;64.60;58.40;;;;;;;15.09;100.00;100865.80;224164;1263;139282;-85
2023/10/05 13:15:15;;;;;;;91.00;83.10;;;;;;;14.99;100.00;100881.25;224045;1263;140337;-88
2023/10/05 13:21:16;;;;;;;94.20;86.90;;;;;;;14.87;100.00;100885.29;223471;1263;139891;-88
2023/10/05 13:27:09;;;;;;;127.50;117.40;;;;;;;14.78;100.00;100887.72;224195;1263;139097;-88
2023/10/05 13:33:39;;;;;;;120.70;111.80;;;;;;;14.69;100.00;100891.35;223574;1263;140905;-90
2023/10/05 13:39:10;;;;;;;;;;;;;;;;;;;;;
2023/10/05 13:57:07;;;;;;;;;;;;;;;;;;;;;
2023/10/05 14:03:09;;;;;;;;;;;;;;;;;;;;;
2023/10/05 14:09:10;;;;;;;287.60;264.00;;;;;;;14.41;100.00;100914.78;224111;1264;139568;-86
2023/10/05 14:15:12;;;;;;;296.40;272.40;;;;;;;14.35;100.00;100916.04;223684;1263;248691;-88
2023/10/05 14:21:06;;;;;;;341.70;312.30;;;;;;;14.35;100.00;100897.83;223671;1263;140902;-86
2023/10/05 14:33:16;;;;;;;357.80;325.10;;;;;;;14.40;100.00;100895.70;223379;1263;140923;-86
2023/10/05 14:39:06;;;;;;;415.40;379.20;;;;;;;14.46;100.00;100897.08;224123;1263;139440;-86
2023/10/05 14:45:01;;;;;;;431.70;391.90;;;;;;;14.52;100.00;100890.75;223580;1267;140300;-87
2023/10/05 14:51:27;;;;;;;394.30;360.50;;;;;;;14.58;100.00;100892.60;223607;1266;140972;-87
2023/10/05 14:57:29;;;;;;;397.70;361.60;;;;;;;14.58;100.00;100896.88;224062;1265;140194;-86
2023/10/05 15:02:59;;;;;;;;;;;;;;;;;;;;;
2023/10/05 15:09:02;;;;;;;366.50;334.40;;;;;;;14.53;100.00;100900.89;224091;1266;139973;-88
2023/10/05 15:14:55;;;;;;;;;;;;;;;;;;;;;
2023/10/05 15:20:57;;;;;;;415.10;377.20;;;;;;;14.44;100.00;100898.33;223545;1267;140961;-87
2023/10/05 15:26:53;;;;;;;412.00;373.00;;;;;;;14.42;100.00;100905.84;224087;1267;142052;-88
2023/10/05 15:32:54;;;;;;;381.90;334.00;;;;;;;14.39;100.00;100917.55;223653;1263;141030;-86
2023/10/05 15:38:48;;;;;;;335.30;305.70;;;;;;;14.35;100.00;100921.89;224118;1267;140438;-88
2023/10/05 15:44:49;;;;;;;299.20;272.30;;;;;;;14.28;100.00;100927.80;223699;1267;140516;-88
2023/10/05 15:50:55;;;;;;;299.70;276.40;;;;;;;14.23;100.00;100930.45;223538;1268;140794;-89
2023/10/05 15:57:00;;;;;;;263.30;242.10;;;;;;;14.14;100.00;100942.65;224057;1264;139409;-87
2023/10/05 16:02:54;;;;;;;;;;;;;;;;;;;;;
2023/10/05 16:08:57;;;;;;;246.20;226.40;;;;;;;13.92;100.00;100961.27;224221;1264;139455;-88
2023/10/05 16:14:58;;;;;;;207.60;191.10;;;;;;;13.81;100.00;100966.25;223542;1267;140671;-87
2023/10/05 16:20:58;;;;;;;187.70;173.40;;;;;;;13.75;100.00;100971.75;223626;1265;140761;-88
2023/10/05 16:26:59;;;;;;;226.20;208.30;;;;;;;13.66;100.00;100971.61;224108;1264;139628;-87
2023/10/05 16:39:02;;;;;;;229.90;211.40;;;;;;;13.51;100.00;100982.88;224093;1263;139685;-88
2023/10/05 16:51:05;;;;;;;181.20;166.80;;;;;;;13.39;100.00;101002.05;223584;1264;140916;-88
2023/10/05 16:57:04;;;;;;;138.10;128.00;;;;;;;13.30;100.00;101003.16;224161;1264;139465;-87
2023/10/05 17:03:05;;;;;;;187.30;173.00;;;;;;;13.24;100.00;101008.24;223599;1267;140935;-87
2023/10/05 17:15:08;;;;;;;55.00;50.30;;;;;;;13.15;100.00;101017.54;223716;1264;139789;-86
2023/10/05 17:21:09;;;;;;;57.20;52.60;;;;;;;13.13;100.00;101018.79;223610;1264;140594;-86
2023/10/05 17:27:14;;;;;;;69.50;64.10;;;;;;;13.13;100.00;101021.70;224064;1265;139913;-86
2023/10/05 17:33:06;;;;;;;101.80;94.10;;;;;;;13.13;100.00;101030.56;223662;1263;140439;-85
2023/10/05 17:39:06;;;;;;;;;;;;;;;;;;;;;
2023/10/05 17:51:11;;;;;;;127.60;117.60;;;;;;;13.14;100.00;101054.09;223576;1264;140934;-86
2023/10/05 17:57:10;;;;;;;123.40;113.90;;;;;;;13.15;100.00;101053.48;224222;1263;140110;-88
2023/10/05 18:09:16;;;;;;;325.70;299.60;;;;;;;13.15;100.00;101063.59;224133;1263;139968;-86
2023/10/05 18:15:16;;;;;;;313.50;288.10;;;;;;;13.13;100.00;101070.52;224182;1264;140185;-87
2023/10/05 18:26:59;;;;;;;186.80;173.00;;;;;;;13.03;100.00;101082.00;224150;1266;139640;-87
2023/10/05 18:39:02;;;;;;;98.30;91.20;;;;;;;12.86;100.00;101097.55;224137;1263;140123;-86
2023/10/05 18:45:06;;;;;;;113.60;105.10;;;;;;;12.76;100.00;101103.73;223601;1263;140216;-85
2023/10/05 18:57:06;;;;;;;90.70;84.40;;;;;;;12.60;100.00;101120.88;224245;1264;139923;-86
2023/10/05 19:03:06;;;;;;;83.30;77.00;;;;;;;12.50;100.00;101126.98;223527;1263;140598;-86
2023/10/05 19:15:33;;;;;;;53.70;49.70;;;;;;;12.33;100.00;101138.70;223720;1263;140153;-87
2023/10/05 19:21:11;;;;;;;66.00;61.30;;;;;;;12.26;100.00;101149.87;223482;1263;140610;-88
2023/10/05 19:33:14;;;;;;;47.20;43.70;;;;;;;12.07;100.00;101157.68;223567;1264;140261;-87
2023/10/05 19:39:13;;;;;;;43.90;40.10;;;;;;;11.99;100.00;101166.38;224220;1263;139160;-88
2023/10/05 19:45:15;;;;;;;32.10;29.30;;;;;;;11.90;100.00;101172.85;223966;1263;140144;-86
2023/10/05 19:51:08;;;;;;;;;;;;;;;;;;;;;
2023/10/05 20:03:14;;;;;;;19.20;16.40;;;;;;;11.68;100.00;101201.35;223757;1263;142297;-87
2023/10/05 20:09:15;;;;;;;18.50;14.50;;;;;;;11.60;100.00;101210.89;224255;1263;139308;-86
2023/10/05 20:15:16;;;;;;;16.00;13.40;;;;;;;11.53;100.00;101208.36;223843;1263;224579;-85
2023/10/05 20:21:17;;;;;;;13.50;8.90;;;;;;;11.45;100.00;101213.48;223774;1263;140911;-86
2023/10/05 20:27:16;;;;;;;;;;;;;;;;;;;;;
2023/10/05 20:39:21;;;;;;;8.60;5.10;;;;;;;11.23;100.00;101225.70;224258;1264;139229;-85
2023/10/05 20:45:21;;;;;;;10.90;5.50;;;;;;;11.15;100.00;101227.98;223877;1263;139539;-85
2023/10/05 21:03:34;;;;;;;7.10;4.10;;;;;;;10.96;100.00;101235.51;223542;1263;140413;-86
2023/10/05 21:09:33;;;;;;;10.70;3.70;;;;;;;10.90;100.00;101234.67;224171;1263;139027;-85
2023/10/05 21:21:34;;;;;;;8.00;4.00;;;;;;;10.77;100.00;101243.80;223724;1263;140173;-83
2023/10/05 21:27:35;;;;;;;7.70;3.60;;;;;;;10.69;100.00;101250.93;224258;1263;138943;-83
2023/10/05 21:33:36;;;;;;;8.70;4.40;;;;;;;10.62;100.00;101255.23;223561;1266;139881;-84
2023/10/05 21:39:39;;;;;;;7.80;4.00;;;;;;;10.58;100.00;101252.06;224211;1264;139312;-84
2023/10/05 21:45:51;;;;;;;10.50;4.30;;;;;;;10.54;100.00;101254.96;224169;1263;139400;-84
2023/10/05 21:51:52;;;;;;;9.10;4.50;;;;;;;10.51;100.00;101248.52;223506;1263;140156;-85
2023/10/05 22:09:56;;;;;;;13.90;9.40;;;;;;;10.60;100.00;101257.48;224254;1263;138765;-84
2023/10/05 22:15:56;;;;;;;20.00;12.00;;;;;;;10.68;100.00;101252.48;224317;1265;139352;-85
2023/10/05 22:21:57;;;;;;;20.50;14.20;;;;;;;10.75;100.00;101254.93;223767;1263;140557;-85
2023/10/05 22:40:00;;;;;;;30.50;25.30;;;;;;;10.94;100.00;101257.64;224261;1263;140285;-85
2023/10/05 22:46:02;;;;;;;41.70;36.10;;;;;;;11.02;100.00;101261.68;224278;1265;139011;-85
2023/10/05 22:52:03;;;;;;;49.70;45.60;;;;;;;11.08;100.00;101263.09;223676;1263;141296;-85
2023/10/05 23:04:06;;;;;;;64.20;59.50;;;;;;;11.18;100.00;101266.45;223678;1263;140259;-85
2023/10/05 23:16:17;;;;;;;65.80;60.40;;;;;;;11.26;100.00;101286.46;224157;1263;139112;-85
2023/10/05 23:22:12;;;;;;;66.30;59.40;;;;;;;11.24;100.00;101289.02;223754;1264;140841;-85
2023/10/05 23:28:14;;;;;;;67.00;60.70;;;;;;;11.29;100.00;101298.04;224188;1263;139176;-85
2023/10/05 23:34:17;;;;;;;76.10;69.90;;;;;;;11.35;100.00;101303.82;223792;1263;140308;-85
2023/10/05 23:40:16;;;;;;;96.00;88.50;;;;;;;11.38;100.00;101311.45;223751;1263;140651;-86
2023/10/05 23:52:21;;;;;;;70.90;65.10;;;;;;;11.41;100.00;101327.73;223727;1263;141254;-84
2023/10/05 23:58:22;;;;;;;60.10;54.80;;;;;;;11.42;100.00;101333.77;224106;1263;138945;-84
